Řízení letového provozu České republiky
Letiste: LKCV Aktualizace: 28.06.2017 05:10:04  UTC
 METAR LKCV 28.06. 05:00 RRB
METAR LKCV 280508Z 10002KT 0300 FG VV010 16/16 Q1003 =